createdAt,value
2022-09-18T00:02:10.786Z,20.10
2022-09-18T00:07:15.608Z,20.10
2022-09-18T00:12:18.840Z,20.20
2022-09-18T00:17:22.182Z,20.20
2022-09-18T00:22:26.860Z,20.30
2022-09-18T00:27:30.008Z,20.30
2022-09-18T00:32:33.640Z,20.20
2022-09-18T00:37:38.264Z,20.20
2022-09-18T00:42:41.596Z,20.10
2022-09-18T00:47:47.743Z,20.10
2022-09-18T00:52:57.929Z,20.10
2022-09-18T00:58:03.935Z,20.20
2022-09-18T01:03:07.949Z,20.10
2022-09-18T01:08:27.352Z,20.10
2022-09-18T01:13:39.565Z,20.00
2022-09-18T01:18:52.823Z,20.10
2022-09-18T01:24:41.197Z,20.10
2022-09-18T01:29:52.326Z,20.20
2022-09-18T01:35:09.906Z,20.20
2022-09-18T01:40:22.572Z,20.20
2022-09-18T01:45:30.873Z,20.30
2022-09-18T01:50:38.913Z,20.30
2022-09-18T01:55:43.771Z,20.40
2022-09-18T02:00:54.262Z,20.40
2022-09-18T02:06:03.250Z,20.40
2022-09-18T02:11:10.011Z,20.30
2022-09-18T02:16:18.191Z,20.20
2022-09-18T02:21:27.447Z,20.20
2022-09-18T02:26:31.165Z,20.20
2022-09-18T02:31:37.925Z,20.10
2022-09-18T02:37:07.879Z,20.00
2022-09-18T02:42:25.923Z,20.00
2022-09-18T02:47:42.481Z,20.00
2022-09-18T02:52:53.870Z,20.00
2022-09-18T02:58:01.748Z,20.00
2022-09-18T03:03:06.888Z,20.00
2022-09-18T03:08:18.408Z,20.10
2022-09-18T03:13:21.981Z,20.20
2022-09-18T03:18:26.845Z,20.30
2022-09-18T03:23:32.657Z,20.40
2022-09-18T03:28:52.174Z,20.60
2022-09-18T03:33:57.399Z,20.70
2022-09-18T03:39:01.219Z,20.80
2022-09-18T03:44:05.536Z,20.90
2022-09-18T03:49:11.147Z,21.00
2022-09-18T03:54:16.839Z,21.00
2022-09-18T03:59:30.002Z,20.90
2022-09-18T04:04:40.628Z,20.80
2022-09-18T04:09:49.706Z,20.70
2022-09-18T04:14:52.978Z,20.60
2022-09-18T04:19:57.615Z,20.70
2022-09-18T04:25:01.715Z,20.70
2022-09-18T04:30:05.643Z,20.70
2022-09-18T04:35:12.580Z,20.60
2022-09-18T04:40:16.085Z,20.60
2022-09-18T04:45:19.539Z,20.60
2022-09-18T04:50:24.443Z,20.50
2022-09-18T04:55:45.717Z,20.50
2022-09-18T05:00:50.836Z,20.50
2022-09-18T05:05:56.420Z,20.50
2022-09-18T05:10:59.658Z,20.40
2022-09-18T05:16:07.841Z,20.30
2022-09-18T05:21:13.005Z,20.30
2022-09-18T05:26:16.409Z,20.30
2022-09-18T05:31:19.744Z,20.40
2022-09-18T05:36:26.349Z,20.40
2022-09-18T05:41:29.725Z,20.40
2022-09-18T05:46:32.969Z,20.30
2022-09-18T05:51:40.204Z,20.30
2022-09-18T05:56:43.632Z,20.20
2022-09-18T06:01:48.195Z,20.20
2022-09-18T06:07:04.463Z,20.10
2022-09-18T06:12:08.768Z,20.10
2022-09-18T06:17:12.772Z,20.10
2022-09-18T06:22:17.724Z,20.10
2022-09-18T06:27:21.077Z,20.00
2022-09-18T06:32:24.350Z,20.00
2022-09-18T06:37:28.925Z,20.10
2022-09-18T06:42:49.911Z,20.10
2022-09-18T06:48:21.215Z,20.10
2022-09-18T06:53:26.976Z,20.00
2022-09-18T06:58:36.088Z,19.90
2022-09-18T07:03:39.320Z,19.80
2022-09-18T07:08:57.370Z,19.70
2022-09-18T07:14:18.663Z,19.80
2022-09-18T07:19:24.747Z,20.30
2022-09-18T07:24:29.946Z,20.90
2022-09-18T07:29:33.602Z,21.50
2022-09-18T07:34:36.930Z,22.10
2022-09-18T07:39:43.149Z,22.70
2022-09-18T07:45:05.952Z,23.20
2022-09-18T07:50:15.726Z,23.70
2022-09-18T07:55:21.916Z,23.90
2022-09-18T08:00:31.012Z,24.00
2022-09-18T08:05:35.783Z,23.90
2022-09-18T08:10:41.318Z,23.90
2022-09-18T08:16:13.329Z,23.80
2022-09-18T08:21:35.397Z,23.70
2022-09-18T08:26:45.412Z,23.60
2022-09-18T08:31:48.841Z,23.50
2022-09-18T08:36:53.148Z,23.40
2022-09-18T08:42:13.854Z,23.30
2022-09-18T08:47:24.729Z,23.10
2022-09-18T08:52:33.428Z,22.90
2022-09-18T08:57:46.769Z,22.80
2022-09-18T09:02:54.392Z,22.80
2022-09-18T09:08:11.842Z,22.70
2022-09-18T09:13:32.601Z,22.70
2022-09-18T09:18:51.091Z,22.60
2022-09-18T09:24:09.215Z,22.50
2022-09-18T09:29:52.099Z,22.40
2022-09-18T09:35:25.566Z,22.30
2022-09-18T09:40:55.820Z,22.30
2022-09-18T09:46:13.034Z,22.40
2022-09-18T09:51:23.395Z,22.40
2022-09-18T09:56:32.665Z,22.50
2022-09-18T10:01:45.558Z,22.50
2022-09-18T10:06:57.027Z,22.60
2022-09-18T10:12:12.259Z,22.70
2022-09-18T10:17:20.665Z,22.80
2022-09-18T10:22:26.867Z,22.90
2022-09-18T10:27:31.210Z,23.00
2022-09-18T10:32:38.880Z,23.30
2022-09-18T10:37:52.936Z,23.70
2022-09-18T10:43:04.709Z,24.00
2022-09-18T10:48:15.728Z,24.40
2022-09-18T10:53:28.738Z,24.70
2022-09-18T10:58:35.440Z,25.00
2022-09-18T11:03:43.126Z,25.40
2022-09-18T11:08:56.331Z,25.70
2022-09-18T11:14:02.269Z,26.00
2022-09-18T11:19:24.924Z,26.20
2022-09-18T11:24:31.299Z,26.20
2022-09-18T11:29:42.411Z,26.20
2022-09-18T11:34:53.172Z,26.20
2022-09-18T11:40:03.654Z,26.10
2022-09-18T11:45:24.610Z,26.00
2022-09-18T11:50:33.922Z,25.90
2022-09-18T11:55:42.295Z,25.60
2022-09-18T12:00:49.542Z,25.30
2022-09-18T12:05:59.081Z,25.00
2022-09-18T12:11:14.262Z,25.00
2022-09-18T12:16:22.454Z,25.10
2022-09-18T12:21:38.020Z,25.30
2022-09-18T12:26:49.549Z,25.40
2022-09-18T12:32:00.886Z,25.70
2022-09-18T12:37:19.362Z,25.90
2022-09-18T12:42:30.785Z,26.30
2022-09-18T12:47:58.478Z,26.50
2022-09-18T12:53:12.011Z,26.60
2022-09-18T12:58:30.158Z,26.70
2022-09-18T13:03:36.428Z,26.70
2022-09-18T13:08:48.819Z,26.80
2022-09-18T13:13:58.439Z,26.70
2022-09-18T13:19:06.206Z,26.70
2022-09-18T13:24:16.809Z,26.60
2022-09-18T13:29:56.770Z,26.50
2022-09-18T13:35:02.647Z,26.50
2022-09-18T13:40:27.173Z,26.60
2022-09-18T13:45:39.255Z,26.60
2022-09-18T13:50:52.489Z,26.50
2022-09-18T13:55:57.412Z,26.50
2022-09-18T14:01:01.852Z,26.30
2022-09-18T14:06:46.379Z,26.00
2022-09-18T14:11:50.994Z,25.60
2022-09-18T14:16:57.078Z,25.20
2022-09-18T14:22:03.218Z,24.70
2022-09-18T14:27:32.458Z,24.20
2022-09-18T14:32:36.274Z,23.70
2022-09-18T14:37:40.090Z,23.40
2022-09-18T14:42:44.836Z,23.00
2022-09-18T14:47:49.337Z,22.70
2022-09-18T14:52:53.440Z,22.40
2022-09-18T14:58:01.420Z,22.20
2022-09-18T15:03:09.039Z,21.90
2022-09-18T15:08:18.604Z,21.70
2022-09-18T15:13:23.842Z,21.60
2022-09-18T15:18:28.594Z,21.50
2022-09-18T15:23:38.342Z,21.40
2022-09-18T15:28:46.523Z,21.40
2022-09-18T15:33:57.500Z,21.30
2022-09-18T15:39:01.637Z,21.20
2022-09-18T15:44:07.503Z,21.20
2022-09-18T15:49:29.561Z,21.10
2022-09-18T15:54:32.796Z,21.10
2022-09-18T15:59:39.776Z,21.10
2022-09-18T16:04:43.101Z,21.10
2022-09-18T16:09:48.559Z,21.00
2022-09-18T16:15:03.328Z,20.90
2022-09-18T16:20:24.193Z,20.90
2022-09-18T16:25:30.439Z,20.90
2022-09-18T16:30:37.337Z,20.90
2022-09-18T16:35:40.626Z,20.90
2022-09-18T16:40:44.570Z,20.90
2022-09-18T16:45:50.093Z,20.90
2022-09-18T16:50:53.422Z,20.80
2022-09-18T16:55:58.686Z,20.80
2022-09-18T17:01:05.127Z,20.80
2022-09-18T17:06:08.714Z,20.80
2022-09-18T17:11:13.220Z,20.80
2022-09-18T17:16:35.235Z,20.80
2022-09-18T17:21:43.029Z,20.90
2022-09-18T17:26:46.803Z,20.90
2022-09-18T17:31:52.575Z,21.00
2022-09-18T17:36:56.824Z,21.00
2022-09-18T17:42:03.174Z,21.00
2022-09-18T17:47:08.288Z,21.10
2022-09-18T17:52:12.700Z,21.10
2022-09-18T17:57:16.578Z,21.10
2022-09-18T18:02:21.540Z,21.20
2022-09-18T18:07:25.021Z,21.20
2022-09-18T18:12:28.267Z,21.20
2022-09-18T18:17:36.034Z,21.20
2022-09-18T18:22:39.336Z,21.10
2022-09-18T18:27:42.586Z,21.10
2022-09-18T18:32:47.546Z,21.10
2022-09-18T18:37:51.527Z,21.10
2022-09-18T18:42:55.488Z,21.10
2022-09-18T18:48:01.265Z,21.10
2022-09-18T18:53:04.952Z,21.00
2022-09-18T18:58:09.214Z,21.00
2022-09-18T19:03:14.178Z,20.90
2022-09-18T19:08:17.891Z,20.80
2022-09-18T19:13:25.449Z,20.70
2022-09-18T19:18:30.618Z,20.70
2022-09-18T19:23:34.892Z,20.70
2022-09-18T19:28:38.385Z,20.70
2022-09-18T19:33:43.319Z,20.70
2022-09-18T19:38:51.427Z,20.70
2022-09-18T19:43:55.693Z,20.70
2022-09-18T19:49:00.941Z,20.70
2022-09-18T19:54:04.838Z,20.90
2022-09-18T19:59:08.056Z,21.10
2022-09-18T20:04:12.728Z,21.30
2022-09-18T20:09:15.968Z,21.40
2022-09-18T20:14:19.213Z,21.60
2022-09-18T20:19:26.155Z,21.70
2022-09-18T20:24:29.522Z,21.90
2022-09-18T20:29:33.418Z,21.90
2022-09-18T20:34:38.236Z,22.00
2022-09-18T20:39:41.667Z,22.10
2022-09-18T20:44:45.096Z,22.20
2022-09-18T20:49:50.687Z,22.30
2022-09-18T20:54:53.898Z,22.40
2022-09-18T20:59:57.155Z,22.40
2022-09-18T21:05:02.506Z,22.50
2022-09-18T21:10:06.540Z,22.60
2022-09-18T21:15:13.522Z,22.50
2022-09-18T21:20:18.251Z,22.60
2022-09-18T21:25:21.861Z,22.60
2022-09-18T21:30:26.734Z,22.50
2022-09-18T21:35:31.404Z,22.50
2022-09-18T21:40:35.670Z,22.50
2022-09-18T21:45:40.354Z,22.60
2022-09-18T21:50:44.931Z,22.50
2022-09-18T21:55:48.480Z,22.60
2022-09-18T22:00:51.744Z,22.60
2022-09-18T22:05:56.327Z,22.70
2022-09-18T22:11:02.982Z,22.70
2022-09-18T22:16:06.601Z,22.80
2022-09-18T22:21:20.498Z,22.90
2022-09-18T22:26:25.162Z,22.90
2022-09-18T22:31:29.170Z,22.90
2022-09-18T22:36:34.263Z,23.00
2022-09-18T22:41:38.756Z,23.00
2022-09-18T22:46:43.766Z,23.00
2022-09-18T22:51:48.537Z,23.00
2022-09-18T22:56:52.935Z,23.00
2022-09-18T23:01:58.100Z,23.00
2022-09-18T23:07:03.899Z,23.00
2022-09-18T23:12:08.251Z,23.00
2022-09-18T23:17:11.803Z,23.00
2022-09-18T23:22:16.294Z,23.00
2022-09-18T23:27:19.449Z,22.90
2022-09-18T23:32:22.617Z,23.00
2022-09-18T23:37:27.110Z,23.00
2022-09-18T23:42:30.661Z,22.90
2022-09-18T23:47:34.430Z,22.90
2022-09-18T23:52:39.256Z,22.90
2022-09-18T23:57:42.387Z,22.90
